Koror, Caroline Islands

11:35 PM CHUT on October 24, 2014 (GMT +1000)
Babelthuap/koror | Change Station
CLOSE
Current Station
Airport
Location: Koror,
Elevation: 177 ft
Nearby Weather Stations

Elev 177 ft 7.37 °N, 134.54 °E | Updated 42 minutes ago

Mostly Cloudy
Mostly Cloudy
81 °F
Feels Like 87 °F
N
6
Wind Variable Wind from WSW

Today
High -- | Low -- °F
--% Chance of Precip.
Yesterday
High -- | Low -- °F
Precip. -- in
6:48 AM 6:43 PM
New Moon, 0% visible
Pressure 29.89 in
Visibility 14.0 miles
Clouds Scattered Clouds 1600 ft
Mostly Cloudy 30000 ft
Heat Index 87 °F
Dew Point 77 °F
Humidity 89%
Rainfall 0.00 in
Snow Depth Not available.
UV 0 out of 12
Pollen Not available.
Air Quality Not available.
Flu Activity Not available.
METAR PTRO 241253Z 24005KT 14SM SCT016TCU BKN300 27/25 A2989 RMK TCU VC ALQDS

More Conditions Fewer Conditions

Pressure 29.89 in
Visibility 14.0 miles
Clouds Scattered Clouds 1600 ft
Mostly Cloudy 30000 ft
Heat Index 87 °F
Dew Point 77 °F
Humidity 89%
Rainfall 0.00 in
Snow Depth Not available.
UV 0 out of 12
Pollen Not available.
Air Quality Not available.
Flu Activity Not available.
METAR PTRO 241253Z 24005KT 14SM SCT016TCU BKN300 27/25 A2989 RMK TCU VC ALQDS

More Conditions Fewer Conditions

10-Day Weather Forecast

Almanac

Astronomy

Oct. 24, 2014 Rise Set
Actual Time 6:48 AM CHUT 6:43 PM CHUT
Civil Twilight 6:27 AM CHUT 7:04 PM CHUT
Nautical Twilight 6:03 AM CHUT 7:29 PM CHUT
Astronomical Twilight 5:38 AM CHUT 7:54 PM CHUT
Moon 6:51 AM CHUT 7:02 PM CHUT
Length of Visible Light 12h 37m
Length of Day
11h 54m
Tomorrow will be 0m 21s shorter.
New Moon, 0% of the Moon is Illuminated
Today
New Moon
Oct 30
First Quarter
Nov 6
Full
Nov 14
Last Quarter
Nov 22
New

Yesterday's Extremes

Country Highs Country Lows

Community

WunderPhotos

Upload Photos

1,764,550 photos uploaded!

WunderBlogs® & News

Nearby

Snow Depth

Not available.

Earthquake Activity

City Distance Mag. Time & Date
No recent earthquake activity has been reported nearby.
Minimum magnitude displayed is 2.5.

Coastal Water Temperatures

Place Temperature
No Stations Reporting

Nearby Weather Stations